Address 0x616fbe93b86a49a5718b5adbe07c837e2fae4cc1 1

Txn Hash Method
Block
From
To
Value [Txn Fee]
0x3b07ac5ceda23c9b946db7983591935083ba2a7331423c1c4e65116434b0adf3Transfer From166033652022-06-27 22:51:1542 mins ago0x616fbe93b86a49a5718b5adbe07c837e2fae4cc1OUT 0x5f30473133e6e1e2f030439153eb57cb0ca3d3fc0 AVAX0.00393355 25
0x0396c62fb81fa315aea134c20746d99fc74f9558d06818d3c4b9055d9900a2bfTransfer From166031112022-06-27 22:42:4551 mins ago0x616fbe93b86a49a5718b5adbe07c837e2fae4cc1OUT 0xb641aa8944972b0095a269838047ebbd7cbd9d7b0 AVAX0.003934225 25
0x3b194b55c6c563e17ec06c29f46ae6d82c2814d5a9195af28ab9ccc30990d5eaOpen166028312022-06-27 22:33:251 hr ago0x616fbe93b86a49a5718b5adbe07c837e2fae4cc1OUT 0xd6fe50c23b62e903ef180644aff25cf1c0f623b80 AVAX0.050981 25
0x4421e6dba5bc201ce8a039e5cb0181db41174bc1868b31f131ac8fccbb3e9bdfMint166028092022-06-27 22:32:411 hr 1 min ago0x616fbe93b86a49a5718b5adbe07c837e2fae4cc1OUT 0xd6fe50c23b62e903ef180644aff25cf1c0f623b80 AVAX0.00427465 25
0x5c732dcea92e1f4a52bfe10dca9ca3a594e0b2333497e39fed8e04f38d41349dTransfer From166015942022-06-27 21:52:261 hr 41 mins ago0x616fbe93b86a49a5718b5adbe07c837e2fae4cc1OUT 0x9dbcda356e6a5a0f1416d98a2b4bc30ea70d24440 AVAX0.003934225 25
0x2d06b00d5712530ec828d089f6b901fda26c71a466c13231036508b42b7b8b13Transfer From166015452022-06-27 21:50:491 hr 43 mins ago0x616fbe93b86a49a5718b5adbe07c837e2fae4cc1OUT 0x4108544a4fff996fef841e876ab8d24d8314afc20 AVAX0.003934225 25
0x573adcf14cbb24e1de342fcdb4c440e4fabb906a5bfcef173f34fae88bfd27e2Transfer From166013942022-06-27 21:45:421 hr 48 mins ago0x616fbe93b86a49a5718b5adbe07c837e2fae4cc1OUT 0xb3d32f040ad07c34fb444f8393ce5604e728ebf30 AVAX0.003606575 25
0x07751ad515dcc83d34f6b3f0692fe13c255750785a5c3a57fd384223b6a5a310Transfer From166009472022-06-27 21:30:432 hrs 3 mins ago0x616fbe93b86a49a5718b5adbe07c837e2fae4cc1OUT 0x915f41589171f630b3eff09edfee67a870a83cb50 AVAX0.003606875 25
0x40243d5ae513580bbfb11ea671e925d73d5436e774fbeb40940e43ae766182a6Transfer From165998152022-06-27 20:52:512 hrs 41 mins ago0x616fbe93b86a49a5718b5adbe07c837e2fae4cc1OUT 0x55a9c0e1c92d4b4617ac699bd1c20162a01e5e6c0 AVAX0.00350575 25
0x780b4181fd541461b9ec6aba1494487ca38a51a8f7f03de80ea926dd0d20fee4Transfer From165997172022-06-27 20:49:352 hrs 44 mins ago0x616fbe93b86a49a5718b5adbe07c837e2fae4cc1OUT 0x03ccc95698d554516909ded5ca7894e16c8064bf0 AVAX0.00393325 25
0xbc18650477e999b5e2a8fe7d4f2ea06630b18b204e698967616b38c126fd6d6bTransfer From165980082022-06-27 19:52:263 hrs 41 mins ago0x616fbe93b86a49a5718b5adbe07c837e2fae4cc1OUT 0xdd90280345a96d208342b71989188deb9ec81d370 AVAX0.003606875 25
0x843054a99e09d7b3c82a35239b535f639237c8e8f975b4c4e9a8bb309c02a019Open165977312022-06-27 19:43:033 hrs 50 mins ago0x616fbe93b86a49a5718b5adbe07c837e2fae4cc1OUT 0x96376f0176be9691abe9dcdfb9a267524090de5b0 AVAX0.0277683 25
0xe3d64fed90fde9510a0e44adaa556919581a1a0f33f3ba1c8a6cbfbb6435b035Transfer From165976842022-06-27 19:41:293 hrs 52 mins ago0x616fbe93b86a49a5718b5adbe07c837e2fae4cc1OUT 0x3fa46aef62cbd44e773fcac9bf7793c60ad078120 AVAX0.003676875 25
0x06b5039846272f2d4b05d520602005f31dbae6f151b8c3aa22bae2ede9ec3b5eOpen165975042022-06-27 19:35:253 hrs 58 mins ago0x616fbe93b86a49a5718b5adbe07c837e2fae4cc1OUT 0x96376f0176be9691abe9dcdfb9a267524090de5b0 AVAX0.0280474 25
0x7aec31b23b920a349e1fa6616cfa7a5e2671175ec02d82bf64c0ecd414df780bOpen165974732022-06-27 19:34:233 hrs 59 mins ago0x616fbe93b86a49a5718b5adbe07c837e2fae4cc1OUT 0xb3d32f040ad07c34fb444f8393ce5604e728ebf30 AVAX0.00544095 25
0xfb411419c5e1ee033274c78c13a9fc5689b6410fd90372388c2e765dab53cfd0Transfer From165974122022-06-27 19:32:214 hrs 1 min ago0x616fbe93b86a49a5718b5adbe07c837e2fae4cc1OUT 0x96376f0176be9691abe9dcdfb9a267524090de5b0 AVAX0.003249675 25
0x5aed09a6364f3124a571ab87479763385d0733c2de202ce26368865c293beeabOpen165973342022-06-27 19:29:444 hrs 4 mins ago0x616fbe93b86a49a5718b5adbe07c837e2fae4cc1OUT 0x96376f0176be9691abe9dcdfb9a267524090de5b0 AVAX0.0280483 25
0xa249c48da96aa13c8ea28f6d06b2f9930d3e44f61efd4a1a8e13a21f7528e133Transfer From165972972022-06-27 19:28:314 hrs 5 mins ago0x616fbe93b86a49a5718b5adbe07c837e2fae4cc1OUT 0x69f5bd8b513e4de2ce2b69392fc84c2c0131f7280 AVAX0.003864225 25
0x9294a61ef919faff33b9e4a2ffcd40c125eefb9eb6a3e833e00b91a5080a74d2Transfer From165968772022-06-27 19:14:294 hrs 19 mins ago0x616fbe93b86a49a5718b5adbe07c837e2fae4cc1OUT 0x336a314ea95b219499a997e0fffa97e854f97c8c0 AVAX0.003934225 25
0x7f124f713685a708dcb8b472484f28cf5996e6f53e1a444324b455b748f787dbTransfer From165961792022-06-27 18:51:214 hrs 42 mins ago0x616fbe93b86a49a5718b5adbe07c837e2fae4cc1OUT 0x9e2384a71ef872ec20cbd34806daa4c01c364b470 AVAX0.003606875 25
0x21030cfac6f50669886f6bb765d8cb482f465502636bc433cc9fae2540226982Transfer From165960062022-06-27 18:45:324 hrs 48 mins ago0x616fbe93b86a49a5718b5adbe07c837e2fae4cc1OUT 0x1aad54be5d87ed6620bbbbc6a5d211b16cd7b5960 AVAX0.003676875 25
0xa1714c5a574fe0e95db5161cc8052ab54b6b7f0d025e647920cffd83760e43b7Transfer From165954912022-06-27 18:28:265 hrs 5 mins ago0x616fbe93b86a49a5718b5adbe07c837e2fae4cc1OUT 0xab0ff0df5eb1f7de591278779cf9e07b564cdf400 AVAX0.003249375 25
0xdc992d6ad64a147a510ffcfbf018b1e9349cb5c27a1f17ebd5254149aaaf0b70Transfer From165942442022-06-27 17:47:225 hrs 46 mins ago0x616fbe93b86a49a5718b5adbe07c837e2fae4cc1OUT 0x5f67e24993d10f9d04e3ff2c3185278db101ccf90 AVAX0.003606875 25
0x0270c197dbddb9a83eabedd76541feda6acd31fe93df5045f460285797637810Transfer From165940082022-06-27 17:39:295 hrs 54 mins ago0x616fbe93b86a49a5718b5adbe07c837e2fae4cc1OUT 0x1b21073cfd81e288e3a0a39a658952fc7b06520c0 AVAX0.003864225 25
0xd866bd3c7931f9f7e8d4bd979386118bcb3a9692b6971c2661e017fc4d671e48Transfer From165938012022-06-27 17:32:336 hrs 1 min ago0x616fbe93b86a49a5718b5adbe07c837e2fae4cc1OUT 0x3f0cf5c9c7f691e9d51491e02d92daea93b9f2b00 AVAX0.003606575 25
[ Download CSV Export 
Parent Txn Hash Block From To Value
Loading

Contract Name:
0

Compiler Version
0

Optimization Enabled:
0

Other Settings:
-NA-
Block Transaction Gas Used Reward
Age Block Fee Address BC Fee Address Voting Power Jailed Incoming
Block Uncle Number Difficulty Gas Used Reward
Loading
Make sure to use the "Vote Down" button for any spammy posts, and the "Vote Up" for interesting conversations.